createdAt,value
2022-10-13T00:00:20.742Z,5.33
2022-10-13T00:03:06.077Z,6.20
2022-10-13T00:05:51.797Z,4.43
2022-10-13T00:08:38.172Z,5.00
2022-10-13T00:11:26.814Z,4.87
2022-10-13T00:14:12.292Z,4.83
2022-10-13T00:16:57.509Z,3.50
2022-10-13T00:19:42.898Z,4.40
2022-10-13T00:22:28.072Z,3.97
2022-10-13T00:25:13.432Z,4.23
2022-10-13T00:27:59.789Z,5.97
2022-10-13T00:30:50.510Z,3.90
2022-10-13T00:33:35.770Z,4.83
2022-10-13T00:36:23.480Z,5.50
2022-10-13T00:39:08.971Z,5.23
2022-10-13T00:41:54.536Z,4.50
2022-10-13T00:45:00.718Z,4.13
2022-10-13T00:47:50.143Z,4.03
2022-10-13T00:50:40.943Z,4.03
2022-10-13T00:53:31.497Z,4.30
2022-10-13T00:56:19.728Z,4.40
2022-10-13T00:59:13.568Z,3.90
2022-10-13T01:02:00.807Z,3.90
2022-10-13T01:04:47.852Z,5.90
2022-10-13T01:07:34.806Z,4.50
2022-10-13T01:10:39.959Z,3.30
2022-10-13T01:13:31.469Z,4.20
2022-10-13T01:16:40.930Z,4.57
2022-10-13T01:20:02.489Z,4.00
2022-10-13T01:22:59.811Z,4.53
2022-10-13T01:26:11.078Z,3.83
2022-10-13T01:29:12.015Z,3.70
2022-10-13T01:32:16.560Z,4.50
2022-10-13T01:35:22.619Z,3.40
2022-10-13T01:38:25.484Z,4.03
2022-10-13T01:41:38.576Z,3.23
2022-10-13T01:44:34.175Z,3.63
2022-10-13T01:47:21.582Z,3.60
2022-10-13T01:50:08.992Z,3.57
2022-10-13T01:52:59.304Z,4.23
2022-10-13T01:55:59.764Z,4.90
2022-10-13T01:58:47.610Z,3.37
2022-10-13T02:01:42.316Z,4.33
2022-10-13T02:04:29.410Z,3.53
2022-10-13T02:07:30.023Z,4.40
2022-10-13T02:10:27.315Z,3.37
2022-10-13T02:13:17.998Z,3.43
2022-10-13T02:16:03.492Z,3.50
2022-10-13T02:18:50.410Z,4.40
2022-10-13T02:21:36.148Z,3.60
2022-10-13T02:24:21.407Z,4.27
2022-10-13T02:27:08.735Z,4.70
2022-10-13T02:29:58.018Z,3.83
2022-10-13T02:35:33.817Z,3.37
2022-10-13T02:38:19.501Z,3.70
2022-10-13T02:41:05.030Z,4.47
2022-10-13T02:43:50.143Z,3.80
2022-10-13T02:46:35.671Z,4.23
2022-10-13T02:49:21.007Z,3.57
2022-10-13T02:52:07.256Z,3.50
2022-10-13T02:55:00.912Z,3.40
2022-10-13T02:57:46.553Z,5.17
2022-10-13T03:00:31.856Z,3.90
2022-10-13T03:03:17.198Z,3.73
2022-10-13T03:06:02.879Z,5.23
2022-10-13T03:08:48.252Z,5.70
2022-10-13T03:11:34.112Z,5.03
2022-10-13T03:14:19.397Z,4.83
2022-10-13T03:17:07.800Z,6.90
2022-10-13T03:19:55.858Z,8.30
2022-10-13T03:22:42.474Z,4.50
2022-10-13T03:25:30.116Z,6.17
2022-10-13T03:28:15.450Z,5.53
2022-10-13T03:31:07.302Z,4.53
2022-10-13T03:33:52.502Z,5.50
2022-10-13T03:36:37.978Z,5.60
2022-10-13T03:39:23.115Z,5.90
2022-10-13T03:42:09.172Z,5.30
2022-10-13T03:44:56.480Z,5.37
2022-10-13T03:47:41.976Z,6.47
2022-10-13T03:50:27.183Z,4.87
2022-10-13T03:53:12.983Z,6.73
2022-10-13T03:55:58.171Z,7.23
2022-10-13T03:58:44.160Z,5.27
2022-10-13T04:01:30.678Z,4.30
2022-10-13T04:04:15.883Z,4.60
2022-10-13T04:07:01.998Z,5.60
2022-10-13T04:09:47.192Z,6.33
2022-10-13T04:12:32.429Z,4.87
2022-10-13T04:15:17.754Z,6.50
2022-10-13T04:18:03.152Z,4.60
2022-10-13T04:20:48.607Z,6.77
2022-10-13T04:23:33.804Z,5.20
2022-10-13T04:26:22.229Z,5.43
2022-10-13T04:29:09.614Z,5.60
2022-10-13T04:31:55.579Z,4.47
2022-10-13T04:34:41.659Z,5.07
2022-10-13T04:37:27.300Z,6.67
2022-10-13T04:40:12.929Z,5.13
2022-10-13T04:42:58.587Z,8.07
2022-10-13T04:45:43.809Z,10.00
2022-10-13T04:48:29.478Z,6.97
2022-10-13T04:51:17.577Z,5.97
2022-10-13T04:54:05.488Z,5.30
2022-10-13T04:56:51.012Z,6.50
2022-10-13T04:59:36.266Z,7.63
2022-10-13T05:02:21.699Z,6.47
2022-10-13T05:05:07.891Z,5.23
2022-10-13T05:07:53.119Z,6.93
2022-10-13T05:10:38.336Z,7.97
2022-10-13T05:13:24.972Z,9.97
2022-10-13T05:16:13.362Z,8.37
2022-10-13T05:18:58.916Z,7.87
2022-10-13T05:21:44.187Z,7.40
2022-10-13T05:24:38.920Z,5.73
2022-10-13T05:27:24.456Z,6.00
2022-10-13T05:30:10.374Z,5.77
2022-10-13T05:32:55.698Z,7.37
2022-10-13T05:35:41.306Z,8.60
2022-10-13T05:38:26.612Z,5.37
2022-10-13T05:41:13.903Z,6.90
2022-10-13T05:44:09.251Z,6.27
2022-10-13T05:47:05.037Z,6.00
2022-10-13T05:49:52.643Z,9.97
2022-10-13T05:52:37.927Z,7.13
2022-10-13T05:55:23.240Z,7.80
2022-10-13T05:58:08.721Z,5.30
2022-10-13T06:00:55.168Z,8.43
2022-10-13T06:03:42.042Z,6.10
2022-10-13T06:06:31.279Z,5.90
2022-10-13T06:09:17.555Z,6.53
2022-10-13T06:12:03.352Z,6.93
2022-10-13T06:14:48.939Z,6.23
2022-10-13T06:17:38.120Z,6.27
2022-10-13T06:20:23.930Z,5.87
2022-10-13T06:23:09.326Z,4.60
2022-10-13T06:25:54.603Z,4.67
2022-10-13T06:28:39.852Z,7.13
2022-10-13T06:31:25.011Z,6.30
2022-10-13T06:34:10.166Z,5.10
2022-10-13T06:36:55.716Z,6.20
2022-10-13T06:39:42.095Z,5.13
2022-10-13T06:42:30.950Z,5.53
2022-10-13T06:45:28.324Z,7.20
2022-10-13T06:48:13.978Z,5.33
2022-10-13T06:51:04.640Z,7.10
2022-10-13T06:53:49.945Z,6.43
2022-10-13T06:56:39.576Z,5.33
2022-10-13T06:59:29.504Z,5.90
2022-10-13T07:02:14.729Z,4.93
2022-10-13T07:05:00.118Z,6.47
2022-10-13T07:07:45.634Z,6.97
2022-10-13T07:10:30.732Z,4.50
2022-10-13T07:13:16.090Z,5.77
2022-10-13T07:16:05.688Z,5.20
2022-10-13T07:18:51.153Z,6.10
2022-10-13T07:21:36.823Z,5.43
2022-10-13T07:24:22.433Z,5.70
2022-10-13T07:27:07.999Z,4.70
2022-10-13T07:29:53.577Z,6.17
2022-10-13T07:32:42.001Z,4.80
2022-10-13T07:35:30.644Z,5.70
2022-10-13T07:38:16.685Z,6.13
2022-10-13T07:41:09.458Z,6.27
2022-10-13T07:43:57.985Z,5.03
2022-10-13T07:46:43.226Z,5.07
2022-10-13T07:49:28.532Z,5.10
2022-10-13T07:52:15.513Z,6.47
2022-10-13T07:55:00.763Z,4.13
2022-10-13T07:57:46.028Z,5.37
2022-10-13T08:00:31.319Z,5.33
2022-10-13T08:03:16.746Z,4.37
2022-10-13T08:06:04.066Z,4.67
2022-10-13T08:08:49.274Z,5.53
2022-10-13T08:11:38.593Z,4.40
2022-10-13T08:14:24.487Z,4.67
2022-10-13T08:17:09.719Z,5.33
2022-10-13T08:19:55.314Z,5.63
2022-10-13T08:22:44.371Z,4.40
2022-10-13T08:25:29.702Z,5.10
2022-10-13T08:28:24.208Z,5.73
2022-10-13T08:31:09.684Z,5.57
2022-10-13T08:33:54.918Z,6.47
2022-10-13T08:36:40.563Z,5.43
2022-10-13T08:39:26.163Z,5.77
2022-10-13T08:42:18.301Z,5.00
2022-10-13T08:45:35.842Z,5.88
2022-10-13T08:48:13.855Z,5.90
2022-10-13T08:51:07.516Z,4.27
2022-10-13T08:53:54.846Z,5.37
2022-10-13T08:56:40.197Z,5.00
2022-10-13T08:59:25.522Z,5.03
2022-10-13T09:02:29.358Z,5.03
2022-10-13T09:05:27.994Z,4.03
2022-10-13T09:08:20.519Z,4.85
2022-10-13T09:11:05.752Z,4.77
2022-10-13T09:13:55.532Z,4.70
2022-10-13T09:16:43.500Z,4.77
2022-10-13T09:19:34.107Z,5.37
2022-10-13T09:22:24.149Z,3.57
2022-10-13T09:25:20.586Z,4.43
2022-10-13T09:28:15.817Z,4.80
2022-10-13T09:31:17.051Z,6.23
2022-10-13T09:34:13.500Z,6.10
2022-10-13T09:37:04.867Z,5.83
2022-10-13T09:40:14.748Z,5.50
2022-10-13T09:43:01.831Z,4.50
2022-10-13T09:45:47.334Z,4.17
2022-10-13T09:48:36.564Z,4.37
2022-10-13T09:51:36.828Z,4.40
2022-10-13T09:54:39.944Z,4.37
2022-10-13T09:57:41.262Z,5.37
2022-10-13T10:00:28.239Z,4.97
2022-10-13T10:03:22.268Z,4.80
2022-10-13T10:06:12.279Z,3.73
2022-10-13T10:09:05.164Z,5.33
2022-10-13T10:11:53.452Z,5.50
2022-10-13T10:14:39.340Z,6.10
2022-10-13T10:17:43.867Z,4.40
2022-10-13T10:20:54.294Z,4.47
2022-10-13T10:23:53.963Z,5.97
2022-10-13T10:26:51.349Z,5.63
2022-10-13T10:30:01.837Z,4.97
2022-10-13T10:32:50.201Z,5.93
2022-10-13T10:35:39.056Z,5.47
2022-10-13T10:38:45.830Z,4.27
2022-10-13T10:42:00.850Z,5.00
2022-10-13T10:44:49.181Z,5.33
2022-10-13T10:47:42.044Z,3.80
2022-10-13T10:50:30.856Z,4.57
2022-10-13T10:53:30.770Z,4.50
2022-10-13T10:56:27.719Z,4.73
2022-10-13T10:59:27.859Z,4.00
2022-10-13T11:02:34.911Z,4.43
2022-10-13T11:05:20.389Z,6.57
2022-10-13T11:08:28.733Z,5.40
2022-10-13T11:11:24.937Z,4.63
2022-10-13T11:14:29.484Z,4.23
2022-10-13T11:17:41.665Z,5.73
2022-10-13T11:20:27.016Z,4.70
2022-10-13T11:23:12.528Z,4.90
2022-10-13T11:26:26.253Z,5.87
2022-10-13T11:32:05.250Z,4.57
2022-10-13T11:35:05.781Z,7.60
2022-10-13T11:38:05.634Z,4.77
2022-10-13T11:41:17.672Z,6.37
2022-10-13T11:44:13.329Z,6.03
2022-10-13T11:47:15.075Z,5.83
2022-10-13T11:50:25.334Z,6.10
2022-10-13T11:53:33.854Z,4.93
2022-10-13T11:56:39.360Z,4.90
2022-10-13T11:59:35.672Z,8.20
2022-10-13T12:02:23.451Z,5.23
2022-10-13T12:05:25.352Z,5.23
2022-10-13T12:08:10.848Z,6.50
2022-10-13T12:10:59.990Z,5.13
2022-10-13T12:13:47.121Z,5.97
2022-10-13T12:16:33.944Z,4.77
2022-10-13T12:19:22.630Z,6.03
2022-10-13T12:22:12.459Z,5.70
2022-10-13T12:25:06.177Z,6.53
2022-10-13T12:27:54.578Z,6.07
2022-10-13T12:30:39.885Z,5.80
2022-10-13T12:33:35.466Z,7.03
2022-10-13T12:36:25.934Z,6.47
2022-10-13T12:39:15.325Z,7.57
2022-10-13T12:42:02.575Z,7.33
2022-10-13T12:44:48.306Z,6.20
2022-10-13T12:47:49.340Z,6.03
2022-10-13T12:50:37.381Z,6.70
2022-10-13T12:53:28.601Z,5.83
2022-10-13T12:56:29.385Z,6.03
2022-10-13T12:59:19.578Z,6.13
2022-10-13T13:02:22.159Z,6.83
2022-10-13T13:05:30.912Z,6.63
2022-10-13T13:08:33.034Z,8.07
2022-10-13T13:11:25.079Z,15.17
2022-10-13T13:14:37.619Z,9.87
2022-10-13T13:17:56.533Z,11.73
2022-10-13T13:20:37.970Z,14.13
2022-10-13T13:23:23.760Z,13.27
2022-10-13T13:26:21.632Z,11.70
2022-10-13T13:29:10.767Z,19.93
2022-10-13T13:31:56.232Z,10.67
2022-10-13T13:34:44.519Z,13.33
2022-10-13T13:37:36.856Z,12.83
2022-10-13T13:40:24.896Z,15.57
2022-10-13T13:43:10.129Z,13.60
2022-10-13T13:54:16.465Z,10.63
2022-10-13T13:57:01.350Z,5.93
2022-10-13T13:59:47.045Z,8.57
2022-10-13T14:02:32.328Z,10.87
2022-10-13T14:05:17.514Z,16.97
2022-10-13T14:08:03.102Z,13.30
2022-10-13T14:10:48.417Z,8.70
2022-10-13T14:13:36.311Z,17.53
2022-10-13T14:16:22.216Z,9.53
2022-10-13T14:19:11.396Z,14.37
2022-10-13T14:21:56.781Z,8.13
2022-10-13T14:24:42.128Z,12.43
2022-10-13T14:27:28.842Z,10.37
2022-10-13T14:30:14.823Z,18.47
2022-10-13T14:33:00.437Z,12.90
2022-10-13T14:35:47.657Z,14.30
2022-10-13T14:38:35.245Z,11.97
2022-10-13T14:41:20.699Z,22.97
2022-10-13T14:44:11.845Z,14.50
2022-10-13T14:46:58.342Z,19.73
2022-10-13T14:49:44.120Z,12.60
2022-10-13T14:52:29.431Z,22.43
2022-10-13T14:55:15.457Z,16.83
2022-10-13T14:58:03.072Z,19.00
2022-10-13T15:00:48.395Z,16.67
2022-10-13T15:03:33.765Z,9.90
2022-10-13T15:06:21.462Z,7.27
2022-10-13T15:11:54.815Z,12.10
2022-10-13T15:14:39.970Z,11.90
2022-10-13T15:17:25.397Z,11.20
2022-10-13T15:20:11.037Z,12.43
2022-10-13T15:22:56.201Z,10.87
2022-10-13T15:25:51.000Z,15.07
2022-10-13T15:28:39.333Z,18.60
2022-10-13T15:31:30.989Z,15.57
2022-10-13T15:34:16.412Z,16.47
2022-10-13T15:37:01.622Z,16.73
2022-10-13T15:39:47.382Z,20.73
2022-10-13T15:42:32.871Z,15.93
2022-10-13T15:45:18.367Z,23.37
2022-10-13T15:48:06.566Z,14.83
2022-10-13T15:50:51.799Z,15.20
2022-10-13T15:53:37.551Z,16.40
2022-10-13T15:56:23.178Z,11.37
2022-10-13T15:59:08.844Z,14.77
2022-10-13T16:01:54.007Z,17.50
2022-10-13T16:04:39.272Z,15.23
2022-10-13T16:07:24.598Z,12.00
2022-10-13T16:10:12.402Z,12.00
2022-10-13T16:12:57.616Z,8.87
2022-10-13T16:15:42.998Z,10.20
2022-10-13T16:18:29.716Z,11.53
2022-10-13T16:21:21.542Z,12.77
2022-10-13T16:24:07.642Z,11.27
2022-10-13T16:26:53.461Z,10.90
2022-10-13T16:29:39.688Z,11.67
2022-10-13T16:32:25.774Z,14.57
2022-10-13T16:35:12.598Z,16.47
2022-10-13T16:37:58.419Z,14.00
2022-10-13T16:40:44.223Z,9.07
2022-10-13T16:43:30.877Z,12.60
2022-10-13T16:46:19.084Z,14.50
2022-10-13T16:49:05.035Z,10.20
2022-10-13T16:51:50.480Z,12.40
2022-10-13T16:54:36.522Z,13.93
2022-10-13T16:57:22.850Z,11.63
2022-10-13T17:00:09.846Z,11.47
2022-10-13T17:02:55.511Z,13.57
2022-10-13T17:05:40.844Z,12.47
2022-10-13T17:08:26.102Z,9.23
2022-10-13T17:11:20.797Z,10.67
2022-10-13T17:14:07.079Z,13.03
2022-10-13T17:16:57.414Z,12.63
2022-10-13T17:19:44.296Z,10.23
2022-10-13T17:22:30.073Z,10.47
2022-10-13T17:25:15.553Z,11.10
2022-10-13T17:28:00.820Z,10.07
2022-10-13T17:30:56.911Z,8.13
2022-10-13T17:33:43.055Z,11.07
2022-10-13T17:36:31.704Z,12.77
2022-10-13T17:39:19.759Z,10.20
2022-10-13T17:42:05.210Z,10.70
2022-10-13T17:44:50.599Z,8.97
2022-10-13T17:47:36.161Z,14.50
2022-10-13T17:50:22.241Z,9.87
2022-10-13T17:53:07.759Z,10.83
2022-10-13T17:55:54.763Z,10.43
2022-10-13T17:58:41.973Z,8.43
2022-10-13T18:01:34.436Z,8.37
2022-10-13T18:04:20.120Z,10.27
2022-10-13T18:07:05.356Z,15.57
2022-10-13T18:09:52.717Z,11.17
2022-10-13T18:12:38.001Z,11.77
2022-10-13T18:15:23.149Z,9.03
2022-10-13T18:18:09.245Z,10.43
2022-10-13T18:29:28.039Z,9.40
2022-10-13T18:32:12.813Z,9.67
2022-10-13T18:34:58.145Z,12.23
2022-10-13T18:37:43.727Z,8.30
2022-10-13T18:40:29.115Z,11.03
2022-10-13T18:43:14.666Z,11.13
2022-10-13T18:46:01.224Z,9.37
2022-10-13T18:48:46.615Z,9.20
2022-10-13T18:51:36.234Z,11.97
2022-10-13T18:54:21.924Z,9.60
2022-10-13T18:57:07.268Z,11.83
2022-10-13T18:59:52.352Z,9.87
2022-10-13T19:02:44.443Z,12.20
2022-10-13T19:05:29.744Z,13.10
2022-10-13T19:08:15.487Z,9.73
2022-10-13T19:11:00.892Z,9.50
2022-10-13T19:13:47.218Z,10.13
2022-10-13T19:16:35.056Z,9.70
2022-10-13T19:19:20.610Z,9.50
2022-10-13T19:22:07.785Z,10.80
2022-10-13T19:24:52.963Z,11.10
2022-10-13T19:27:38.313Z,9.80
2022-10-13T19:30:26.323Z,9.43
2022-10-13T19:33:13.943Z,9.73
2022-10-13T19:36:05.846Z,8.77
2022-10-13T19:38:51.478Z,9.33
2022-10-13T19:41:37.044Z,8.77
2022-10-13T19:44:24.832Z,13.87
2022-10-13T19:47:10.390Z,10.17
2022-10-13T19:49:55.791Z,9.50
2022-10-13T19:52:42.194Z,10.47
2022-10-13T19:55:28.237Z,8.57
2022-10-13T19:58:16.270Z,9.13
2022-10-13T20:01:04.092Z,8.20
2022-10-13T20:03:49.881Z,9.57
2022-10-13T20:06:35.365Z,10.67
2022-10-13T20:09:20.913Z,8.07
2022-10-13T20:12:06.552Z,9.20
2022-10-13T20:14:55.152Z,8.67
2022-10-13T20:17:40.557Z,9.47
2022-10-13T20:20:25.943Z,6.93
2022-10-13T20:23:11.910Z,8.30
2022-10-13T20:26:03.916Z,10.23
2022-10-13T20:28:54.452Z,7.47
2022-10-13T20:31:39.775Z,9.07
2022-10-13T20:34:25.043Z,9.33
2022-10-13T20:37:10.580Z,9.30
2022-10-13T20:39:57.192Z,7.60
2022-10-13T20:42:42.584Z,9.77
2022-10-13T20:45:29.901Z,9.10
2022-10-13T20:48:15.270Z,9.57
2022-10-13T20:51:06.515Z,8.70
2022-10-13T20:53:52.098Z,8.87
2022-10-13T20:56:37.888Z,9.93
2022-10-13T20:59:23.559Z,10.73
2022-10-13T21:02:13.967Z,9.40
2022-10-13T21:04:59.196Z,8.73
2022-10-13T21:07:44.944Z,7.50
2022-10-13T21:10:30.191Z,8.27
2022-10-13T21:13:16.027Z,8.60
2022-10-13T21:16:10.473Z,7.97
2022-10-13T21:18:57.280Z,9.73
2022-10-13T21:21:42.568Z,7.50
2022-10-13T21:24:27.994Z,7.43
2022-10-13T21:27:13.284Z,7.20
2022-10-13T21:29:58.632Z,6.80
2022-10-13T21:32:43.848Z,9.53
2022-10-13T21:35:29.078Z,8.80
2022-10-13T21:38:14.344Z,8.17
2022-10-13T21:41:00.192Z,7.80
2022-10-13T21:43:45.737Z,9.37
2022-10-13T21:46:33.270Z,8.27
2022-10-13T21:49:18.789Z,8.20
2022-10-13T21:52:04.349Z,7.57
2022-10-13T21:54:50.178Z,9.70
2022-10-13T21:57:35.478Z,7.27
2022-10-13T22:00:20.787Z,6.83
2022-10-13T22:03:06.023Z,7.83
2022-10-13T22:05:51.176Z,6.00
2022-10-13T22:08:40.946Z,7.43
2022-10-13T22:11:42.226Z,6.37
2022-10-13T22:14:30.510Z,6.70
2022-10-13T22:17:15.699Z,7.20
2022-10-13T22:20:00.894Z,6.87
2022-10-13T22:22:46.660Z,8.77
2022-10-13T22:25:32.154Z,8.50
2022-10-13T22:28:17.671Z,8.13
2022-10-13T22:31:07.068Z,6.23
2022-10-13T22:33:53.802Z,8.37
2022-10-13T22:36:44.560Z,7.10
2022-10-13T22:39:30.300Z,6.67
2022-10-13T22:42:22.799Z,8.50
2022-10-13T22:45:08.470Z,8.20
2022-10-13T22:47:54.066Z,10.40
2022-10-13T22:50:39.347Z,7.77
2022-10-13T22:53:24.559Z,6.20
2022-10-13T22:56:13.684Z,7.40
2022-10-13T22:59:06.326Z,6.53
2022-10-13T23:01:51.482Z,7.00
2022-10-13T23:04:36.647Z,7.53
2022-10-13T23:07:22.324Z,7.60
2022-10-13T23:10:08.200Z,7.97
2022-10-13T23:12:54.726Z,6.13
2022-10-13T23:15:40.192Z,8.10
2022-10-13T23:18:25.294Z,7.10
2022-10-13T23:21:13.820Z,7.93
2022-10-13T23:24:05.383Z,5.87
2022-10-13T23:26:50.700Z,6.77
2022-10-13T23:29:36.031Z,8.87
2022-10-13T23:32:21.276Z,7.17
2022-10-13T23:35:06.700Z,6.27
2022-10-13T23:37:52.875Z,6.10
2022-10-13T23:40:38.498Z,6.30
2022-10-13T23:43:23.703Z,5.77
2022-10-13T23:46:10.713Z,8.63
2022-10-13T23:48:56.826Z,6.17
2022-10-13T23:51:45.185Z,6.33
2022-10-13T23:54:31.126Z,7.60
2022-10-13T23:57:16.493Z,7.10
